Downstream station:
SHEF ID: RVTO2 Elk Creek at County Rd Brid nr R
STATION TYPE:
PRECIP STAGE RIV-FLOW VOLTAGE BAT-LOAD
in ft cfs volt volt
Ccp-Rev Ccp-Rev Ccp-Rev Ccp-Rev Ccp-Rev
(US/Central)
07/09 00:00 0.00 9.12 56 12.83 12.22
07/09 01:00 0.00 9.12 56 12.82 12.31
07/09 02:00 0.00 9.13 57 12.80 12.09
07/09 03:00 0.00 9.12 56 12.78 12.02
07/09 04:00 0.00 9.13 57 12.77 11.88
07/09 05:00 0.00 9.13 57 12.73 11.65
07/09 06:00 0.00 9.13 57 12.76 12.21
07/09 07:00 0.00 9.13 57 12.77 12.31
07/09 08:00 0.00 9.13 57 13.15 12.33
07/09 09:00 0.00 9.13 57 13.70 12.86
07/09 10:00 0.00 9.13 57 13.78 13.32
07/09 11:00 0.00 9.13 57 13.66 13.30
07/09 12:00 0.00 9.12 56 13.33 13.19
07/09 13:00 0.00 9.12 56 13.19 12.96
07/09 14:00 0.00 9.12 56 13.17 12.92
07/09 15:00 0.00 9.12 56 13.17 12.91
07/09 16:00 0.00 9.11 56 13.11 12.89
07/09 17:00 0.00 9.11 56 13.11 12.85
07/09 18:00 0.00 9.11 56 13.10 12.84
07/09 19:00 0.00 9.11 56 13.11 12.84
07/09 20:00 0.00 9.10 55 13.03 12.83
07/09 21:00 0.00 9.11 56 12.93 12.70
07/09 22:00 0.00 9.11 56 12.90 12.63
07/09 23:00 0.00 9.12 56 12.88 12.61